Time;durP1;ratioP1;P1;durP2;ratioP2;P2;SDS_P1;SDS_P2;PMS_P1;PMS_P2;Temp;Humidity;BMP_temperature;BMP_pressure;BME280_temperature;BME280_humidity;BME280_pressure;Samples;Min_cycle;Max_cycle;Signal;HPM_P1;HPM_P2
2020/12/24 00:00:36;;;;;;;10.25;2.88;;;;;;;8.59;100.00;99858.25;10135926;29;20508;-73
2020/12/24 00:05:37;;;;;;;11.13;2.60;;;;;;;8.65;100.00;99858.81;10135608;29;20311;-73
2020/12/24 00:10:38;;;;;;;7.82;3.05;;;;;;;8.60;100.00;99859.97;10135183;29;20045;-73
2020/12/24 00:15:39;;;;;;;8.70;2.58;;;;;;;8.51;100.00;99856.00;10119138;29;20477;-73
2020/12/24 00:20:51;;;;;;;9.05;2.90;;;;;;;8.61;100.00;99866.94;10097225;29;20470;-73
2020/12/24 00:25:52;;;;;;;7.32;2.40;;;;;;;8.74;100.00;99868.88;10111353;29;20051;-73
2020/12/24 00:30:53;;;;;;;11.63;2.65;;;;;;;8.78;100.00;99860.84;10134367;29;20049;-73
2020/12/24 00:35:54;;;;;;;9.45;2.40;;;;;;;8.83;100.00;99858.84;10134764;29;20509;-73
2020/12/24 00:40:55;;;;;;;13.48;3.05;;;;;;;8.79;100.00;99838.94;10132085;29;20048;-73
2020/12/24 00:45:56;;;;;;;7.80;2.55;;;;;;;8.83;100.00;99835.22;10132805;29;20040;-74
2020/12/24 00:51:08;;;;;;;12.80;3.53;;;;;;;8.84;100.00;99832.50;10132031;29;20498;-73
2020/12/24 00:56:10;;;;;;;11.95;3.50;;;;;;;8.75;100.00;99818.06;10132707;29;20044;-73
2020/12/24 01:01:18;;;;;;;11.15;2.55;;;;;;;8.87;100.00;99821.84;10116358;29;20052;-73
2020/12/24 01:06:20;;;;;;;8.82;2.75;;;;;;;8.74;100.00;99805.00;10113364;29;20045;-73
2020/12/24 01:11:26;;;;;;;9.00;2.63;;;;;;;8.72;100.00;99804.22;10134494;29;20048;-73
2020/12/24 01:16:27;;;;;;;10.20;2.95;;;;;;;8.77;100.00;99804.84;10118182;29;20053;-73
2020/12/24 01:21:32;;;;;;;15.48;3.70;;;;;;;8.79;100.00;99800.34;10134961;29;20083;-73
2020/12/24 01:26:33;;;;;;;8.68;2.33;;;;;;;8.71;100.00;99792.84;10135107;29;20041;-73
2020/12/24 01:31:34;;;;;;;10.48;2.75;;;;;;;8.71;100.00;99803.34;10134403;29;20060;-73
2020/12/24 01:36:35;;;;;;;10.20;2.85;;;;;;;8.71;100.00;99798.09;10133408;29;20497;-73
2020/12/24 01:41:36;;;;;;;12.77;3.83;;;;;;;8.73;100.00;99791.00;10134117;29;20489;-73
2020/12/24 01:46:38;;;;;;;12.00;3.67;;;;;;;8.75;100.00;99780.44;10117719;29;20041;-73
2020/12/24 01:51:57;;;;;;;12.52;2.78;;;;;;;8.57;100.00;99760.34;10138048;29;20133;-73
2020/12/24 01:56:58;;;;;;;12.37;3.10;;;;;;;8.50;100.00;99767.69;10140907;29;20391;-73
2020/12/24 02:01:59;;;;;;;8.43;3.25;;;;;;;8.37;100.00;99774.44;10123186;29;20049;-73
2020/12/24 02:07:00;;;;;;;10.07;3.00;;;;;;;8.35;100.00;99773.69;10139822;29;20093;-73
2020/12/24 02:12:03;;;;;;;10.10;2.97;;;;;;;8.41;100.00;99777.78;10140472;29;20044;-74
2020/12/24 02:17:04;;;;;;;9.85;3.10;;;;;;;8.38;100.00;99770.88;10141241;29;20052;-73
2020/12/24 02:22:10;;;;;;;8.57;2.88;;;;;;;8.30;100.00;99773.00;10140248;29;20044;-73
2020/12/24 02:27:12;;;;;;;12.65;3.00;;;;;;;8.41;100.00;99780.41;10139861;29;20045;-73
2020/12/24 02:32:13;;;;;;;11.25;2.60;;;;;;;8.50;100.00;99780.81;10138827;29;20052;-73
2020/12/24 02:37:14;;;;;;;11.02;2.88;;;;;;;8.46;100.00;99776.59;10129009;29;20100;-73
2020/12/24 02:42:16;;;;;;;9.65;2.97;;;;;;;8.47;100.00;99749.44;10135470;29;20170;-73
2020/12/24 02:47:17;;;;;;;9.95;3.45;;;;;;;8.37;100.00;99775.28;10121272;29;20524;-73
2020/12/24 02:52:30;;;;;;;11.80;2.88;;;;;;;8.27;100.00;99768.78;10125987;29;20048;-73
2020/12/24 02:57:32;;;;;;;8.80;2.80;;;;;;;8.17;100.00;99775.38;10132755;29;20063;-73
2020/12/24 03:02:38;;;;;;;13.38;3.15;;;;;;;8.11;100.00;99770.44;10130773;29;20048;-73
2020/12/24 03:07:39;;;;;;;11.07;2.60;;;;;;;8.15;100.00;99773.75;10138062;29;20048;-73
2020/12/24 03:12:40;;;;;;;8.80;2.70;;;;;;;8.07;100.00;99776.72;10138948;29;20045;-73
2020/12/24 03:17:41;;;;;;;10.60;2.88;;;;;;;8.10;100.00;99783.63;10138380;29;20378;-74
2020/12/24 03:22:50;;;;;;;10.38;3.00;;;;;;;8.02;100.00;99772.63;10138182;29;20057;-73
2020/12/24 03:27:51;;;;;;;11.10;3.83;;;;;;;7.97;100.00;99778.94;10137414;29;20064;-73
2020/12/24 03:32:52;;;;;;;8.32;2.85;;;;;;;8.02;100.00;99783.97;10120467;29;20378;-73
2020/12/24 03:37:53;;;;;;;11.63;3.60;;;;;;;7.99;100.00;99771.84;10133320;29;20476;-73
2020/12/24 03:42:55;;;;;;;11.20;2.80;;;;;;;8.02;100.00;99783.13;10136725;29;20052;-73
2020/12/24 03:47:56;;;;;;;9.60;3.53;;;;;;;7.98;100.00;99777.16;10136987;29;20049;-73
2020/12/24 03:53:09;;;;;;;10.10;3.55;;;;;;;7.97;100.00;99792.03;10136127;29;20561;-73
2020/12/24 03:58:11;;;;;;;11.48;2.75;;;;;;;7.95;100.00;99790.44;10135788;29;20110;-74
2020/12/24 04:03:12;;;;;;;9.43;3.75;;;;;;;7.92;100.00;99791.41;10135736;29;20489;-73
2020/12/24 04:08:13;;;;;;;9.73;2.78;;;;;;;7.96;100.00;99795.59;10135853;29;20044;-74
2020/12/24 04:13:15;;;;;;;10.25;3.00;;;;;;;7.89;100.00;99796.78;10134763;29;20052;-73
2020/12/24 04:18:16;;;;;;;10.07;2.55;;;;;;;7.86;100.00;99794.34;10136556;29;20048;-73
2020/12/24 04:23:30;;;;;;;10.05;3.00;;;;;;;7.89;100.00;99796.78;10136355;29;20700;-73
2020/12/24 04:28:31;;;;;;;9.02;3.60;;;;;;;7.89;100.00;99803.81;10135166;29;20393;-73
2020/12/24 04:33:32;;;;;;;8.35;3.40;;;;;;;7.89;100.00;99802.03;10135146;29;20056;-73
2020/12/24 04:38:34;;;;;;;10.63;3.72;;;;;;;7.92;100.00;99808.94;10135880;29;20405;-73
2020/12/24 04:43:37;;;;;;;11.52;3.65;;;;;;;7.90;100.00;99802.91;10134004;29;20052;-73
2020/12/24 04:48:40;;;;;;;6.07;1.97;;;;;;;7.87;100.00;99818.75;10134912;29;20044;-73
2020/12/24 04:53:51;;;;;;;7.68;2.40;;;;;;;7.84;100.00;99808.44;10118097;29;20057;-73
2020/12/24 04:58:58;;;;;;;8.57;2.47;;;;;;;7.83;100.00;99820.69;10116604;29;20431;-73
2020/12/24 05:03:59;;;;;;;9.13;2.40;;;;;;;7.86;100.00;99831.03;10118465;29;20489;-73
2020/12/24 05:09:00;;;;;;;10.55;2.72;;;;;;;7.74;100.00;99820.25;10133521;29;20047;-73
2020/12/24 05:14:19;;;;;;;9.73;3.17;;;;;;;7.65;100.00;99833.75;10134733;29;20044;-74
2020/12/24 05:19:21;;;;;;;8.20;2.78;;;;;;;7.56;100.00;99846.34;10134293;29;20139;-73
2020/12/24 05:24:26;;;;;;;10.35;2.50;;;;;;;7.52;100.00;99846.56;10134405;29;20045;-73
2020/12/24 05:29:27;;;;;;;8.82;2.90;;;;;;;7.46;100.00;99847.69;10142392;29;20055;-73
2020/12/24 05:34:28;;;;;;;7.00;2.60;;;;;;;7.39;100.00;99853.25;10142827;29;20882;-73
2020/12/24 05:39:29;;;;;;;7.38;2.40;;;;;;;7.36;100.00;99863.88;10141830;29;20044;-73
2020/12/24 05:44:31;;;;;;;6.18;2.05;;;;;;;7.34;100.00;99871.81;10140713;29;20052;-73
2020/12/24 05:49:33;;;;;;;5.78;2.17;;;;;;;7.36;100.00;99879.59;10141669;29;20386;-73
2020/12/24 05:54:35;;;;;;;5.28;1.98;;;;;;;7.23;100.00;99866.16;10141671;29;20104;-73
2020/12/24 05:59:37;;;;;;;8.68;2.55;;;;;;;7.20;100.00;99869.75;10141938;29;20056;-73
2020/12/24 06:04:47;;;;;;;7.30;1.83;;;;;;;7.27;100.00;99867.75;10125112;29;20045;-73
2020/12/24 06:09:49;;;;;;;9.40;2.40;;;;;;;7.19;100.00;99856.75;10140329;29;20045;-73
2020/12/24 06:14:53;;;;;;;4.55;1.42;;;;;;;7.23;100.00;99860.91;10140810;29;20383;-73
2020/12/24 06:19:54;;;;;;;6.00;1.50;;;;;;;7.19;100.00;99852.34;10140505;29;20048;-73
2020/12/24 06:24:58;;;;;;;5.43;1.60;;;;;;;7.31;100.00;99857.97;10140525;29;20047;-73
2020/12/24 06:30:07;;;;;;;2.80;1.10;;;;;;;7.32;100.00;99854.44;10138804;29;20049;-73
2020/12/24 06:35:31;;;;;;;4.20;1.55;;;;;;;7.34;100.00;99850.00;10139434;29;20506;-73
2020/12/24 06:40:37;;;;;;;7.40;1.70;;;;;;;7.30;100.00;99841.41;10136046;29;20052;-73
2020/12/24 06:45:40;;;;;;;4.50;1.30;;;;;;;7.30;100.00;99854.50;10128868;29;20260;-73
2020/12/24 06:51:00;;;;;;;4.30;1.50;;;;;;;7.30;100.00;99854.50;10129895;29;20036;-73
2020/12/24 06:56:13;;;;;;;4.10;1.35;;;;;;;7.30;100.00;99871.97;10139405;29;20473;-73
2020/12/24 07:01:29;;;;;;;6.40;2.13;;;;;;;7.29;100.00;99886.84;10139842;29;20505;-73
2020/12/24 07:06:39;;;;;;;3.65;1.42;;;;;;;7.29;100.00;99897.31;10139144;29;20056;-73
2020/12/24 07:11:40;;;;;;;4.78;1.50;;;;;;;7.27;100.00;99898.34;10137687;29;20051;-73
2020/12/24 07:16:47;;;;;;;4.28;1.23;;;;;;;7.32;100.00;99912.94;10137517;29;20052;-73
2020/12/24 07:21:50;;;;;;;4.28;1.30;;;;;;;7.30;100.00;99908.66;10138626;29;20045;-73
2020/12/24 07:26:56;;;;;;;4.30;1.98;;;;;;;7.29;100.00;99918.28;10137700;29;20045;-73
2020/12/24 07:32:01;;;;;;;3.92;1.25;;;;;;;7.24;100.00;99925.50;10137754;29;20134;-74
2020/12/24 07:37:04;;;;;;;4.35;1.30;;;;;;;7.24;100.00;99936.84;10136747;29;20044;-73
2020/12/24 07:42:05;;;;;;;5.93;1.52;;;;;;;7.32;100.00;99961.84;10137392;29;20049;-73
2020/12/24 07:47:07;;;;;;;3.33;1.40;;;;;;;7.28;100.00;99962.91;10120310;29;20040;-73
2020/12/24 07:52:11;;;;;;;4.00;1.20;;;;;;;7.28;100.00;99968.97;10137085;29;20075;-73
2020/12/24 07:57:20;;;;;;;5.00;1.67;;;;;;;7.30;100.00;99979.41;10136514;29;20053;-74
2020/12/24 08:02:21;;;;;;;4.70;1.50;;;;;;;7.22;100.00;99988.44;10120457;29;20056;-73
2020/12/24 08:07:23;;;;;;;5.82;1.60;;;;;;;7.27;100.00;100003.97;10135184;29;20049;-73
2020/12/24 08:12:24;;;;;;;4.43;1.65;;;;;;;7.30;100.00;100005.59;10133203;29;20071;-72
2020/12/24 08:17:37;;;;;;;4.20;1.38;;;;;;;7.40;100.00;100020.91;10133603;29;20048;-72
2020/12/24 08:22:59;;;;;;;4.72;1.88;;;;;;;7.53;100.00;100019.47;10127600;29;20457;-73
2020/12/24 08:28:02;;;;;;;5.20;2.00;;;;;;;7.64;100.00;100021.66;10132495;29;20047;-72
2020/12/24 08:33:24;;;;;;;3.38;1.40;;;;;;;7.65;100.00;100019.88;10131377;29;20140;-73
2020/12/24 08:38:25;;;;;;;2.10;1.38;;;;;;;7.63;100.00;100026.03;10133846;29;20044;-72
2020/12/24 08:43:27;;;;;;;8.52;2.58;;;;;;;7.60;100.00;100033.19;10135408;29;20041;-72
2020/12/24 08:48:33;;;;;;;6.38;2.20;;;;;;;7.57;100.00;100043.81;10118265;29;20075;-71
2020/12/24 08:53:34;;;;;;;7.38;3.30;;;;;;;7.63;100.00;100056.66;10097986;29;20044;-71
2020/12/24 08:58:35;;;;;;;14.05;7.90;;;;;;;7.04;100.00;100056.41;10134541;29;20068;-71
2020/12/24 09:03:36;;;;;;;8.85;6.13;;;;;;;5.91;100.00;100057.06;10138982;29;20033;-71
2020/12/24 09:08:39;;;;;;;5.30;4.50;;;;;;;5.67;100.00;100096.16;10141486;29;20048;-71
2020/12/24 09:13:42;;;;;;;3.50;2.78;;;;;;;5.41;100.00;100118.78;10143700;29;20044;-72
2020/12/24 09:18:44;;;;;;;3.75;2.80;;;;;;;5.29;100.00;100152.19;10141733;29;20052;-72
2020/12/24 09:23:45;;;;;;;3.83;2.47;;;;;;;5.39;100.00;100191.94;10142115;29;20044;-71
2020/12/24 09:28:46;;;;;;;5.30;3.38;;;;;;;5.62;100.00;100212.16;10141257;29;20040;-71
2020/12/24 09:33:47;;;;;;;4.15;3.33;;;;;;;5.42;100.00;100215.38;10140695;29;20056;-72
2020/12/24 09:38:48;;;;;;;4.95;3.92;;;;;;;5.42;100.00;100249.34;10140608;29;20053;-72
2020/12/24 09:43:49;;;;;;;9.63;4.45;;;;;;;5.68;100.00;100272.09;10141412;29;20060;-71
2020/12/24 09:48:50;;;;;;;5.38;3.70;;;;;;;5.56;100.00;100291.59;10140962;29;20048;-71
2020/12/24 09:53:51;;;;;;;6.32;4.32;;;;;;;5.46;100.00;100297.09;10140377;29;20100;-70
2020/12/24 09:58:52;;;;;;;4.20;2.78;;;;;;;5.47;100.00;100311.88;10140863;29;20041;-71
2020/12/24 10:03:54;;;;;;;5.55;3.88;;;;;;;5.36;100.00;100293.06;10141022;29;20052;-71
2020/12/24 10:08:55;;;;;;;7.10;4.53;;;;;;;5.40;100.00;100295.53;10139478;29;20105;-71
2020/12/24 10:13:57;;;;;;;6.82;5.65;;;;;;;5.43;100.00;100292.84;10139496;29;20462;-68
2020/12/24 10:19:02;;;;;;;7.45;5.97;;;;;;;5.45;100.00;100279.72;10140375;29;20056;-71
2020/12/24 10:24:03;;;;;;;1.55;1.05;;;;;;;5.24;100.00;100278.59;10118314;29;20052;-72
2020/12/24 10:29:04;;;;;;;15.82;12.02;;;;;;;5.45;100.00;100304.09;10119383;29;20045;-71
2020/12/24 10:34:05;;;;;;;7.40;5.15;;;;;;;5.33;100.00;100304.44;10138142;29;20105;-71
2020/12/24 10:39:09;;;;;;;2.05;1.20;;;;;;;5.34;100.00;100320.09;10129441;29;20076;-71
2020/12/24 10:44:10;;;;;;;3.30;2.25;;;;;;;5.48;100.00;100327.53;10139404;29;20068;-72
2020/12/24 10:49:12;;;;;;;2.88;1.30;;;;;;;5.46;100.00;100333.69;10130875;29;20047;-71
2020/12/24 10:54:13;;;;;;;3.05;2.00;;;;;;;5.43;100.00;100337.25;10110383;29;20172;-71
2020/12/24 10:59:15;;;;;;;2.95;1.90;;;;;;;5.43;100.00;100366.00;10121856;29;20071;-72
2020/12/24 11:04:17;;;;;;;2.97;2.00;;;;;;;5.38;100.00;100377.44;10137971;29;20516;-72
2020/12/24 11:09:18;;;;;;;4.70;2.90;;;;;;;5.26;100.00;100366.44;10136943;29;20048;-72
2020/12/24 11:14:19;;;;;;;5.72;3.83;;;;;;;5.30;100.00;100383.72;10133930;29;20053;-73
2020/12/24 11:19:20;;;;;;;10.95;7.70;;;;;;;5.25;100.00;100395.22;10137407;29;20049;-71
2020/12/24 11:24:21;;;;;;;13.38;9.68;;;;;;;5.07;100.00;100396.53;10136737;29;20041;-71
2020/12/24 11:29:22;;;;;;;13.90;11.05;;;;;;;4.79;100.00;100398.09;10137539;29;20044;-71
2020/12/24 11:34:28;;;;;;;11.27;8.80;;;;;;;4.73;100.00;100422.59;10135096;29;20068;-72
2020/12/24 11:39:29;;;;;;;12.00;8.32;;;;;;;4.81;100.00;100438.94;10134488;29;20060;-72
2020/12/24 11:44:37;;;;;;;11.07;8.50;;;;;;;4.80;100.00;100458.09;10137341;29;20053;-73
2020/12/24 11:49:38;;;;;;;8.73;7.03;;;;;;;4.79;100.00;100463.34;10137392;29;20052;-73
2020/12/24 11:54:39;;;;;;;8.45;6.18;;;;;;;4.74;100.00;100488.69;10119827;29;20041;-72
2020/12/24 11:59:40;;;;;;;7.68;5.45;;;;;;;4.92;100.00;100509.16;10131707;29;20405;-72
2020/12/24 12:04:41;;;;;;;12.73;9.20;;;;;;;4.86;100.00;100504.06;10136846;29;20402;-72
2020/12/24 12:09:42;;;;;;;5.35;4.30;;;;;;;4.76;100.00;100505.19;10135385;29;20040;-71
2020/12/24 12:14:44;;;;;;;3.92;2.50;;;;;;;4.59;100.00;100502.94;10135491;29;20048;-73
2020/12/24 12:19:45;;;;;;;3.60;2.60;;;;;;;4.59;100.00;100505.53;10122495;29;20056;-73
2020/12/24 12:24:46;;;;;;;4.43;3.10;;;;;;;4.65;100.00;100513.22;10123308;29;20076;-71
2020/12/24 12:29:47;;;;;;;3.80;2.67;;;;;;;4.52;100.00;100496.97;10135551;29;20478;-72
2020/12/24 12:34:48;;;;;;;3.95;2.50;;;;;;;4.67;100.00;100519.28;10135135;29;20381;-72
2020/12/24 12:39:51;;;;;;;3.80;2.80;;;;;;;4.78;100.00;100532.06;10134912;29;20048;-74
2020/12/24 12:44:52;;;;;;;5.07;3.20;;;;;;;4.74;100.00;100523.47;10132659;29;20049;-72
2020/12/24 12:49:53;;;;;;;4.97;3.35;;;;;;;4.76;100.00;100508.66;10132878;29;20061;-73
2020/12/24 12:54:54;;;;;;;8.18;5.38;;;;;;;4.81;100.00;100505.91;10129570;29;20041;-72
2020/12/24 12:59:55;;;;;;;3.95;3.10;;;;;;;4.87;100.00;100506.63;10134535;29;20445;-71
2020/12/24 13:04:56;;;;;;;5.13;3.15;;;;;;;4.78;100.00;100514.66;10130867;29;20100;-72
2020/12/24 13:09:58;;;;;;;7.28;4.03;;;;;;;4.67;100.00;100506.25;10133317;29;20045;-71
2020/12/24 13:14:59;;;;;;;6.13;3.95;;;;;;;4.84;100.00;100527.59;10133266;29;20401;-71
2020/12/24 13:20:00;;;;;;;5.35;3.55;;;;;;;4.79;100.00;100537.25;10132588;29;20053;-71
2020/12/24 13:25:01;;;;;;;7.10;4.80;;;;;;;5.04;100.00;100555.84;10129362;29;20080;-72
2020/12/24 13:30:04;;;;;;;5.82;3.95;;;;;;;4.89;100.00;100545.75;10170752;29;20044;-71
2020/12/24 13:35:07;;;;;;;6.05;4.00;;;;;;;4.89;100.00;100557.06;10168239;29;20401;-71
2020/12/24 13:40:08;;;;;;;4.85;3.97;;;;;;;4.97;100.00;100552.53;10133035;29;20056;-71
2020/12/24 13:45:09;;;;;;;7.47;4.20;;;;;;;5.06;100.00;100561.06;10133623;29;20049;-72
2020/12/24 13:50:10;;;;;;;4.97;3.85;;;;;;;4.99;100.00;100562.09;10139945;29;20051;-72
2020/12/24 13:55:12;;;;;;;6.78;4.43;;;;;;;5.02;100.00;100568.06;10135465;29;20045;-71
2020/12/24 14:00:13;;;;;;;5.30;4.10;;;;;;;5.13;100.00;100567.84;10140938;29;20052;-72
2020/12/24 14:05:14;;;;;;;7.68;4.93;;;;;;;5.26;100.00;100583.22;10140970;29;20048;-71
2020/12/24 14:10:15;;;;;;;10.35;5.30;;;;;;;5.32;100.00;100595.28;10140971;29;20041;-72
2020/12/24 14:15:16;;;;;;;7.53;4.88;;;;;;;5.35;100.00;100590.00;10136114;29;20044;-71
2020/12/24 14:20:19;;;;;;;9.10;5.18;;;;;;;5.36;100.00;100593.47;10128211;29;20045;-71
2020/12/24 14:25:20;;;;;;;8.18;5.15;;;;;;;5.25;100.00;100593.69;10137287;29;20040;-71
2020/12/24 14:30:21;;;;;;;6.47;4.63;;;;;;;5.08;100.00;100588.00;10123606;29;20049;-71
2020/12/24 14:35:23;;;;;;;7.57;4.55;;;;;;;5.09;100.00;100589.72;10110547;29;20100;-71
2020/12/24 14:40:24;;;;;;;8.77;4.35;;;;;;;5.07;100.00;100596.72;10138867;29;20653;-71
2020/12/24 14:45:25;;;;;;;9.35;5.40;;;;;;;5.10;100.00;100592.28;10138895;29;20056;-71
2020/12/24 14:50:26;;;;;;;6.20;4.53;;;;;;;5.05;100.00;100595.88;10139440;29;20042;-71
2020/12/24 14:55:27;;;;;;;7.38;4.28;;;;;;;5.03;100.00;100600.28;10138470;29;20052;-71
2020/12/24 15:00:28;;;;;;;8.85;4.22;;;;;;;5.07;100.00;100610.63;10137400;29;20056;-71
2020/12/24 15:05:29;;;;;;;7.95;4.43;;;;;;;5.01;100.00;100612.53;10138359;29;20048;-71
2020/12/24 15:10:30;;;;;;;7.45;3.92;;;;;;;5.08;100.00;100612.34;10137345;29;20048;-72
2020/12/24 15:15:32;;;;;;;9.63;6.18;;;;;;;5.08;100.00;100630.63;10138438;29;20041;-72
2020/12/24 15:20:33;;;;;;;10.73;5.20;;;;;;;5.13;100.00;100639.22;10138388;29;20052;-72
2020/12/24 15:25:35;;;;;;;11.52;5.80;;;;;;;5.20;100.00;100645.16;10136694;29;20044;-72
2020/12/24 15:30:41;;;;;;;8.07;4.07;;;;;;;5.11;100.00;100641.00;10138676;29;20051;-72
2020/12/24 15:35:43;;;;;;;10.35;4.57;;;;;;;5.07;100.00;100651.53;10137584;29;20060;-72
2020/12/24 15:40:44;;;;;;;8.32;4.30;;;;;;;5.04;100.00;100651.59;10133596;29;20124;-71
2020/12/24 15:45:46;;;;;;;8.15;4.18;;;;;;;4.92;100.00;100645.75;10104977;29;20045;-72
2020/12/24 15:50:47;;;;;;;6.85;4.47;;;;;;;4.92;100.00;100650.13;10137488;29;20040;-72
2020/12/24 15:55:48;;;;;;;9.70;4.55;;;;;;;5.10;100.00;100657.56;10137792;29;20397;-72
2020/12/24 16:01:00;;;;;;;7.57;4.20;;;;;;;4.97;100.00;100650.88;10137274;29;20053;-72
2020/12/24 16:06:01;;;;;;;8.73;5.65;;;;;;;5.21;100.00;100659.94;10136338;29;20047;-72
2020/12/24 16:11:02;;;;;;;11.32;4.80;;;;;;;4.96;100.00;100662.19;10133462;29;20051;-72
2020/12/24 16:16:04;;;;;;;7.80;4.32;;;;;;;4.91;100.00;100667.53;10136487;29;20045;-72
2020/12/24 16:21:05;;;;;;;10.73;5.45;;;;;;;4.93;100.00;100685.78;10136763;29;20044;-72
2020/12/24 16:26:09;;;;;;;10.00;4.45;;;;;;;4.87;100.00;100680.66;10134180;29;20045;-72
2020/12/24 16:31:19;;;;;;;9.32;4.72;;;;;;;4.90;100.00;100696.25;10120413;29;20048;-72
2020/12/24 16:36:22;;;;;;;9.15;4.68;;;;;;;4.85;100.00;100692.91;10133758;29;20061;-72
2020/12/24 16:41:23;;;;;;;10.07;4.80;;;;;;;4.79;100.00;100688.63;10133477;29;20036;-72
2020/12/24 16:46:24;;;;;;;15.95;4.85;;;;;;;4.82;100.00;100691.19;10134597;29;20442;-72
2020/12/24 16:51:27;;;;;;;11.63;5.45;;;;;;;4.71;100.00;100690.53;10133919;29;20059;-72
2020/12/24 16:56:28;;;;;;;8.68;5.43;;;;;;;4.75;100.00;100707.00;10116736;29;20053;-72
2020/12/24 17:01:36;;;;;;;10.82;4.15;;;;;;;4.63;100.00;100697.66;10133534;29;20044;-72
2020/12/24 17:06:38;;;;;;;9.75;3.70;;;;;;;4.61;100.00;100709.84;10132567;29;20047;-72
2020/12/24 17:11:39;;;;;;;9.90;4.72;;;;;;;4.64;100.00;100720.25;10134061;29;20040;-72
2020/12/24 17:16:40;;;;;;;12.70;5.05;;;;;;;4.65;100.00;100723.72;10135296;29;20056;-72
2020/12/24 17:21:41;;;;;;;15.55;7.28;;;;;;;4.56;100.00;100728.22;10139601;29;20045;-72
2020/12/24 17:26:42;;;;;;;11.70;5.20;;;;;;;4.61;100.00;100727.25;10142533;29;20041;-72
2020/12/24 17:31:53;;;;;;;11.43;4.70;;;;;;;4.59;100.00;100735.13;10141614;29;20057;-72
2020/12/24 17:36:54;;;;;;;14.70;8.63;;;;;;;4.68;100.00;100742.81;10142414;29;20383;-72
2020/12/24 17:41:58;;;;;;;11.25;4.55;;;;;;;4.65;100.00;100749.81;10129561;29;20048;-72
2020/12/24 17:46:59;;;;;;;12.70;5.03;;;;;;;4.67;100.00;100758.47;10104363;29;20045;-72
2020/12/24 17:52:01;;;;;;;10.63;3.75;;;;;;;4.65;100.00;100755.03;10103016;29;20045;-72
2020/12/24 17:57:02;;;;;;;7.93;3.20;;;;;;;4.62;100.00;100757.69;10116244;29;20072;-72
2020/12/24 18:02:12;;;;;;;10.90;4.03;;;;;;;4.55;100.00;100776.06;10141674;29;20049;-72
2020/12/24 18:07:13;;;;;;;12.05;4.53;;;;;;;4.41;100.00;100775.44;10132657;29;20040;-72
2020/12/24 18:12:14;;;;;;;7.40;2.92;;;;;;;4.35;100.00;100780.72;10130014;29;20047;-73
2020/12/24 18:17:16;;;;;;;8.18;3.55;;;;;;;4.31;100.00;100780.81;10140549;29;20052;-72
2020/12/24 18:22:17;;;;;;;11.88;3.58;;;;;;;4.17;100.00;100786.25;10111442;29;20045;-72
2020/12/24 18:27:18;;;;;;;12.48;3.58;;;;;;;4.07;100.00;100784.66;10118512;29;20557;-72
2020/12/24 18:32:34;;;;;;;7.60;3.03;;;;;;;3.98;100.00;100787.41;10138935;29;20513;-72
2020/12/24 18:37:35;;;;;;;13.95;3.53;;;;;;;3.94;100.00;100801.34;10139665;29;20049;-72
2020/12/24 18:42:41;;;;;;;10.43;3.60;;;;;;;3.63;100.00;100780.94;10140096;29;20048;-72
2020/12/24 18:47:42;;;;;;;8.32;2.80;;;;;;;3.51;100.00;100788.91;10139875;29;20056;-72
2020/12/24 18:52:44;;;;;;;12.23;3.25;;;;;;;3.40;100.00;100796.00;10139881;29;20055;-72
2020/12/24 18:57:45;;;;;;;9.18;3.20;;;;;;;3.28;100.00;100789.19;10123426;29;20060;-72
2020/12/24 19:02:51;;;;;;;6.18;2.63;;;;;;;3.37;100.00;100802.09;10138120;29;20148;-72
2020/12/24 19:07:52;;;;;;;8.80;3.38;;;;;;;3.27;100.00;100792.66;10139652;29;20462;-72
2020/12/24 19:12:54;;;;;;;11.98;3.30;;;;;;;3.25;100.00;100809.19;10138419;29;20093;-72
2020/12/24 19:17:55;;;;;;;12.60;3.72;;;;;;;3.31;100.00;100817.78;10137953;29;20060;-72
2020/12/24 19:22:56;;;;;;;13.80;3.92;;;;;;;3.47;100.00;100833.22;10138041;29;20576;-72
2020/12/24 19:27:57;;;;;;;11.30;3.95;;;;;;;3.63;100.00;100833.03;10137499;29;20056;-72
2020/12/24 19:33:10;;;;;;;11.07;3.33;;;;;;;3.66;100.00;100846.03;10137356;29;20528;-72
2020/12/24 19:38:11;;;;;;;10.40;3.25;;;;;;;3.74;100.00;100851.16;10119385;29;20049;-72
2020/12/24 19:43:13;;;;;;;11.20;4.15;;;;;;;3.71;100.00;100857.25;10136358;29;20085;-72
2020/12/24 19:48:14;;;;;;;11.80;3.78;;;;;;;3.80;100.00;100862.34;10113340;29;20048;-72
2020/12/24 19:53:15;;;;;;;9.85;3.50;;;;;;;3.90;100.00;100867.44;10137386;29;20067;-72
2020/12/24 19:58:18;;;;;;;8.68;3.35;;;;;;;3.95;100.00;100887.34;10137529;29;20092;-72
2020/12/24 20:03:28;;;;;;;11.32;4.10;;;;;;;4.03;100.00;100901.13;10120090;29;20052;-72
2020/12/24 20:08:29;;;;;;;9.48;3.33;;;;;;;4.04;100.00;100897.66;10136546;29;20057;-72
2020/12/24 20:13:31;;;;;;;11.73;4.32;;;;;;;3.96;100.00;100896.88;10135965;29;20052;-72
2020/12/24 20:18:33;;;;;;;8.25;3.35;;;;;;;4.09;100.00;100905.44;10134365;29;20136;-72
2020/12/24 20:23:35;;;;;;;8.43;3.28;;;;;;;4.16;100.00;100915.75;10134760;29;20048;-72
2020/12/24 20:28:37;;;;;;;7.78;3.50;;;;;;;4.14;100.00;100916.66;10135241;29;20056;-72
2020/12/24 20:33:48;;;;;;;11.00;3.63;;;;;;;4.27;100.00;100923.41;10134204;29;20169;-72
2020/12/24 20:38:50;;;;;;;6.95;3.50;;;;;;;4.17;100.00;100916.63;10131870;29;20044;-72
2020/12/24 20:43:53;;;;;;;12.40;3.65;;;;;;;4.26;100.00;100934.75;10133915;29;20068;-72
2020/12/24 20:48:54;;;;;;;8.32;3.30;;;;;;;3.98;100.00;100909.91;10132127;29;20489;-72
2020/12/24 20:53:55;;;;;;;9.85;3.30;;;;;;;4.12;100.00;100926.22;10123005;29;20040;-72
2020/12/24 20:58:58;;;;;;;9.77;3.17;;;;;;;4.14;100.00;100937.50;10133267;29;20068;-72
2020/12/24 21:04:11;;;;;;;11.38;3.35;;;;;;;4.15;100.00;100944.47;10135987;29;20047;-72
2020/12/24 21:09:12;;;;;;;8.18;3.28;;;;;;;4.20;100.00;100950.47;10135434;29;20501;-72
2020/12/24 21:14:13;;;;;;;10.13;3.45;;;;;;;4.11;100.00;100945.34;10133322;29;20040;-72
2020/12/24 21:19:16;;;;;;;6.47;3.35;;;;;;;4.11;100.00;100951.44;10134824;29;20127;-73
2020/12/24 21:24:17;;;;;;;8.13;2.90;;;;;;;4.06;100.00;100961.06;10134261;29;20048;-72
2020/12/24 21:29:18;;;;;;;8.88;3.08;;;;;;;4.12;100.00;100971.41;10118122;29;20037;-72
2020/12/24 21:34:29;;;;;;;10.93;3.10;;;;;;;4.00;100.00;100968.09;10132526;29;20056;-72
2020/12/24 21:39:30;;;;;;;12.13;3.92;;;;;;;4.00;100.00;100973.31;10123995;29;20044;-72
2020/12/24 21:44:32;;;;;;;14.27;3.90;;;;;;;4.11;100.00;100985.34;10132625;29;20497;-72
2020/12/24 21:49:33;;;;;;;12.50;4.18;;;;;;;4.10;100.00;100988.81;10132862;29;20055;-72
2020/12/24 21:54:34;;;;;;;10.98;3.63;;;;;;;4.11;100.00;100987.94;10115754;29;20565;-72
2020/12/24 21:59:35;;;;;;;10.00;3.40;;;;;;;4.10;100.00;100993.19;10132003;29;20051;-72
2020/12/24 22:04:48;;;;;;;8.25;3.45;;;;;;;4.10;100.00;100991.41;10118523;29;20051;-72
2020/12/24 22:09:49;;;;;;;11.75;3.55;;;;;;;4.12;100.00;101013.13;10128877;29;20049;-72
2020/12/24 22:14:52;;;;;;;9.90;3.92;;;;;;;4.15;100.00;101020.94;10102904;29;20447;-72
2020/12/24 22:19:53;;;;;;;12.82;3.65;;;;;;;4.15;100.00;101023.53;10100001;29;20059;-72
2020/12/24 22:24:54;;;;;;;7.90;3.30;;;;;;;4.15;100.00;101026.16;10099679;29;20068;-72
2020/12/24 22:29:57;;;;;;;8.20;3.50;;;;;;;4.11;100.00;101023.56;10135176;29;20056;-72
2020/12/24 22:35:13;;;;;;;7.22;2.72;;;;;;;4.13;100.00;101033.13;10121776;29;20064;-72
2020/12/24 22:40:14;;;;;;;9.80;3.20;;;;;;;4.06;100.00;101028.00;10136875;29;20489;-73
2020/12/24 22:45:16;;;;;;;7.25;3.28;;;;;;;3.97;100.00;101039.38;10139494;29;20045;-73
2020/12/24 22:50:17;;;;;;;7.20;2.70;;;;;;;4.01;100.00;101048.03;10139305;29;20114;-73
2020/12/24 22:55:18;;;;;;;11.25;3.38;;;;;;;3.91;100.00;101049.00;10139471;29;20051;-72
2020/12/24 23:00:25;;;;;;;7.78;2.90;;;;;;;3.93;100.00;101039.44;10139536;29;20124;-73
2020/12/24 23:05:31;;;;;;;9.20;3.35;;;;;;;3.99;100.00;101068.03;10138773;29;20058;-72
2020/12/24 23:10:32;;;;;;;8.40;3.10;;;;;;;3.87;100.00;101062.94;10136764;29;20059;-73